sensor_id;sensor_type;location;lat;lon;timestamp;P1;durP1;ratioP1;P2;durP2;ratioP2
6825;SDS011;3451;52.476;13.316;2023-06-14T00:01:33;5.20;;;2.83;;
6825;SDS011;3451;52.476;13.316;2023-06-14T00:04:01;3.80;;;2.40;;
6825;SDS011;3451;52.476;13.316;2023-06-14T00:06:31;3.50;;;2.73;;
6825;SDS011;3451;52.476;13.316;2023-06-14T00:08:57;4.20;;;2.47;;
6825;SDS011;3451;52.476;13.316;2023-06-14T00:11:23;2.90;;;2.27;;
6825;SDS011;3451;52.476;13.316;2023-06-14T00:13:50;3.40;;;2.40;;
6825;SDS011;3451;52.476;13.316;2023-06-14T00:16:16;6.47;;;2.67;;
6825;SDS011;3451;52.476;13.316;2023-06-14T00:18:43;5.13;;;2.60;;
6825;SDS011;3451;52.476;13.316;2023-06-14T00:21:09;3.50;;;2.67;;
6825;SDS011;3451;52.476;13.316;2023-06-14T00:23:36;3.77;;;2.53;;
6825;SDS011;3451;52.476;13.316;2023-06-14T00:26:02;7.20;;;2.87;;
6825;SDS011;3451;52.476;13.316;2023-06-14T00:28:29;4.90;;;2.63;;
6825;SDS011;3451;52.476;13.316;2023-06-14T00:30:55;4.70;;;2.80;;
6825;SDS011;3451;52.476;13.316;2023-06-14T00:33:21;5.27;;;2.77;;
6825;SDS011;3451;52.476;13.316;2023-06-14T00:35:48;6.03;;;2.70;;
6825;SDS011;3451;52.476;13.316;2023-06-14T00:38:14;6.20;;;3.03;;
6825;SDS011;3451;52.476;13.316;2023-06-14T00:40:40;3.57;;;2.70;;
6825;SDS011;3451;52.476;13.316;2023-06-14T00:43:07;5.53;;;2.90;;
6825;SDS011;3451;52.476;13.316;2023-06-14T00:45:33;5.33;;;2.93;;
6825;SDS011;3451;52.476;13.316;2023-06-14T00:48:02;5.77;;;2.80;;
6825;SDS011;3451;52.476;13.316;2023-06-14T00:50:29;6.43;;;3.10;;
6825;SDS011;3451;52.476;13.316;2023-06-14T00:52:57;6.73;;;3.07;;
6825;SDS011;3451;52.476;13.316;2023-06-14T00:55:24;4.87;;;2.97;;
6825;SDS011;3451;52.476;13.316;2023-06-14T00:57:50;6.00;;;2.97;;
6825;SDS011;3451;52.476;13.316;2023-06-14T01:00:17;6.83;;;3.80;;
6825;SDS011;3451;52.476;13.316;2023-06-14T01:02:44;4.70;;;3.20;;
6825;SDS011;3451;52.476;13.316;2023-06-14T01:05:11;6.60;;;3.20;;
6825;SDS011;3451;52.476;13.316;2023-06-14T01:12:39;9.50;;;3.70;;
6825;SDS011;3451;52.476;13.316;2023-06-14T01:15:10;6.37;;;3.60;;
6825;SDS011;3451;52.476;13.316;2023-06-14T01:17:38;4.03;;;3.27;;
6825;SDS011;3451;52.476;13.316;2023-06-14T01:20:08;6.33;;;3.93;;
6825;SDS011;3451;52.476;13.316;2023-06-14T01:22:42;7.27;;;4.03;;
6825;SDS011;3451;52.476;13.316;2023-06-14T01:25:09;5.07;;;3.20;;
6825;SDS011;3451;52.476;13.316;2023-06-14T01:27:35;5.27;;;3.67;;
6825;SDS011;3451;52.476;13.316;2023-06-14T01:30:02;5.57;;;3.80;;
6825;SDS011;3451;52.476;13.316;2023-06-14T01:32:28;5.73;;;3.93;;
6825;SDS011;3451;52.476;13.316;2023-06-14T01:34:55;5.17;;;4.13;;
6825;SDS011;3451;52.476;13.316;2023-06-14T01:37:22;7.50;;;4.00;;
6825;SDS011;3451;52.476;13.316;2023-06-14T01:39:48;9.00;;;4.20;;
6825;SDS011;3451;52.476;13.316;2023-06-14T01:42:16;6.83;;;3.80;;
6825;SDS011;3451;52.476;13.316;2023-06-14T01:44:42;5.00;;;4.20;;
6825;SDS011;3451;52.476;13.316;2023-06-14T01:47:10;7.43;;;3.53;;
6825;SDS011;3451;52.476;13.316;2023-06-14T01:49:38;4.73;;;3.93;;
6825;SDS011;3451;52.476;13.316;2023-06-14T01:52:04;5.43;;;4.40;;
6825;SDS011;3451;52.476;13.316;2023-06-14T01:54:32;6.40;;;4.10;;
6825;SDS011;3451;52.476;13.316;2023-06-14T01:56:58;5.93;;;3.87;;
6825;SDS011;3451;52.476;13.316;2023-06-14T01:59:25;8.53;;;4.07;;
6825;SDS011;3451;52.476;13.316;2023-06-14T02:01:51;6.47;;;4.50;;
6825;SDS011;3451;52.476;13.316;2023-06-14T02:04:18;5.50;;;4.17;;
6825;SDS011;3451;52.476;13.316;2023-06-14T02:06:44;5.47;;;4.33;;
6825;SDS011;3451;52.476;13.316;2023-06-14T02:09:10;7.33;;;4.10;;
6825;SDS011;3451;52.476;13.316;2023-06-14T02:11:37;6.93;;;4.63;;
6825;SDS011;3451;52.476;13.316;2023-06-14T02:14:03;6.70;;;4.17;;
6825;SDS011;3451;52.476;13.316;2023-06-14T02:16:29;6.67;;;4.23;;
6825;SDS011;3451;52.476;13.316;2023-06-14T02:18:56;6.73;;;4.43;;
6825;SDS011;3451;52.476;13.316;2023-06-14T02:21:23;6.13;;;4.43;;
6825;SDS011;3451;52.476;13.316;2023-06-14T02:23:49;7.33;;;4.43;;
6825;SDS011;3451;52.476;13.316;2023-06-14T02:26:15;5.60;;;4.07;;
6825;SDS011;3451;52.476;13.316;2023-06-14T02:28:42;5.57;;;4.60;;
6825;SDS011;3451;52.476;13.316;2023-06-14T02:31:08;6.57;;;4.53;;
6825;SDS011;3451;52.476;13.316;2023-06-14T02:33:35;12.53;;;4.67;;
6825;SDS011;3451;52.476;13.316;2023-06-14T02:36:01;9.33;;;4.87;;
6825;SDS011;3451;52.476;13.316;2023-06-14T02:38:29;6.03;;;4.70;;
6825;SDS011;3451;52.476;13.316;2023-06-14T02:40:55;8.70;;;4.83;;
6825;SDS011;3451;52.476;13.316;2023-06-14T02:43:21;5.13;;;4.10;;
6825;SDS011;3451;52.476;13.316;2023-06-14T02:45:48;7.40;;;4.50;;
6825;SDS011;3451;52.476;13.316;2023-06-14T02:48:14;7.00;;;5.07;;
6825;SDS011;3451;52.476;13.316;2023-06-14T02:50:40;7.67;;;4.97;;
6825;SDS011;3451;52.476;13.316;2023-06-14T02:53:07;8.03;;;5.17;;
6825;SDS011;3451;52.476;13.316;2023-06-14T02:55:34;8.57;;;4.70;;
6825;SDS011;3451;52.476;13.316;2023-06-14T02:58:06;7.40;;;4.93;;
6825;SDS011;3451;52.476;13.316;2023-06-14T03:00:33;6.10;;;5.30;;
6825;SDS011;3451;52.476;13.316;2023-06-14T03:03:01;6.30;;;4.97;;
6825;SDS011;3451;52.476;13.316;2023-06-14T03:05:28;6.53;;;4.77;;
6825;SDS011;3451;52.476;13.316;2023-06-14T03:07:54;7.27;;;5.07;;
6825;SDS011;3451;52.476;13.316;2023-06-14T03:10:20;8.03;;;4.60;;
6825;SDS011;3451;52.476;13.316;2023-06-14T03:12:48;7.60;;;5.13;;
6825;SDS011;3451;52.476;13.316;2023-06-14T03:15:14;8.73;;;5.07;;
6825;SDS011;3451;52.476;13.316;2023-06-14T03:17:41;7.97;;;5.27;;
6825;SDS011;3451;52.476;13.316;2023-06-14T03:20:12;8.30;;;5.13;;
6825;SDS011;3451;52.476;13.316;2023-06-14T03:22:38;6.97;;;5.00;;
6825;SDS011;3451;52.476;13.316;2023-06-14T03:25:05;7.40;;;5.33;;
6825;SDS011;3451;52.476;13.316;2023-06-14T03:27:32;8.00;;;5.77;;
6825;SDS011;3451;52.476;13.316;2023-06-14T03:29:58;8.60;;;5.53;;
6825;SDS011;3451;52.476;13.316;2023-06-14T03:32:24;8.10;;;5.47;;
6825;SDS011;3451;52.476;13.316;2023-06-14T03:34:51;9.93;;;5.70;;
6825;SDS011;3451;52.476;13.316;2023-06-14T03:37:18;7.20;;;5.27;;
6825;SDS011;3451;52.476;13.316;2023-06-14T03:39:44;7.53;;;5.23;;
6825;SDS011;3451;52.476;13.316;2023-06-14T03:42:13;6.37;;;5.30;;
6825;SDS011;3451;52.476;13.316;2023-06-14T03:44:40;8.43;;;5.50;;
6825;SDS011;3451;52.476;13.316;2023-06-14T03:47:06;12.97;;;5.43;;
6825;SDS011;3451;52.476;13.316;2023-06-14T03:49:33;8.27;;;5.07;;
6825;SDS011;3451;52.476;13.316;2023-06-14T03:51:59;9.53;;;5.80;;
6825;SDS011;3451;52.476;13.316;2023-06-14T03:54:25;7.50;;;5.40;;
6825;SDS011;3451;52.476;13.316;2023-06-14T03:57:13;7.10;;;5.30;;
6825;SDS011;3451;52.476;13.316;2023-06-14T03:59:39;8.73;;;5.50;;
6825;SDS011;3451;52.476;13.316;2023-06-14T04:02:05;11.60;;;6.13;;
6825;SDS011;3451;52.476;13.316;2023-06-14T04:04:32;10.30;;;5.80;;
6825;SDS011;3451;52.476;13.316;2023-06-14T04:06:59;7.43;;;5.90;;
6825;SDS011;3451;52.476;13.316;2023-06-14T04:09:26;9.40;;;5.93;;
6825;SDS011;3451;52.476;13.316;2023-06-14T04:11:53;8.83;;;6.30;;
6825;SDS011;3451;52.476;13.316;2023-06-14T04:14:19;8.23;;;5.90;;
6825;SDS011;3451;52.476;13.316;2023-06-14T04:16:46;8.03;;;5.70;;
6825;SDS011;3451;52.476;13.316;2023-06-14T04:19:13;8.73;;;6.00;;
6825;SDS011;3451;52.476;13.316;2023-06-14T04:21:39;9.17;;;6.20;;
6825;SDS011;3451;52.476;13.316;2023-06-14T04:24:05;8.33;;;5.90;;
6825;SDS011;3451;52.476;13.316;2023-06-14T04:26:33;7.90;;;5.60;;
6825;SDS011;3451;52.476;13.316;2023-06-14T04:28:59;6.97;;;5.57;;
6825;SDS011;3451;52.476;13.316;2023-06-14T04:31:29;8.53;;;5.70;;
6825;SDS011;3451;52.476;13.316;2023-06-14T04:33:56;8.47;;;5.93;;
6825;SDS011;3451;52.476;13.316;2023-06-14T04:36:22;8.20;;;6.03;;
6825;SDS011;3451;52.476;13.316;2023-06-14T04:38:48;8.00;;;6.47;;
6825;SDS011;3451;52.476;13.316;2023-06-14T04:41:15;6.80;;;5.80;;
6825;SDS011;3451;52.476;13.316;2023-06-14T04:43:41;7.23;;;5.93;;
6825;SDS011;3451;52.476;13.316;2023-06-14T04:46:09;7.90;;;6.00;;
6825;SDS011;3451;52.476;13.316;2023-06-14T04:48:38;6.27;;;5.60;;
6825;SDS011;3451;52.476;13.316;2023-06-14T04:51:07;8.20;;;6.27;;
6825;SDS011;3451;52.476;13.316;2023-06-14T04:53:33;9.23;;;5.90;;
6825;SDS011;3451;52.476;13.316;2023-06-14T04:56:00;10.17;;;6.20;;
6825;SDS011;3451;52.476;13.316;2023-06-14T04:58:27;10.77;;;6.10;;
6825;SDS011;3451;52.476;13.316;2023-06-14T05:00:55;8.27;;;5.70;;
6825;SDS011;3451;52.476;13.316;2023-06-14T05:03:22;8.27;;;6.63;;
6825;SDS011;3451;52.476;13.316;2023-06-14T05:05:50;8.63;;;5.83;;
6825;SDS011;3451;52.476;13.316;2023-06-14T05:08:16;7.57;;;5.60;;
6825;SDS011;3451;52.476;13.316;2023-06-14T05:10:43;7.03;;;5.80;;
6825;SDS011;3451;52.476;13.316;2023-06-14T05:13:09;6.87;;;5.70;;
6825;SDS011;3451;52.476;13.316;2023-06-14T05:15:36;7.63;;;5.93;;
6825;SDS011;3451;52.476;13.316;2023-06-14T05:18:03;7.03;;;5.80;;
6825;SDS011;3451;52.476;13.316;2023-06-14T05:20:29;9.10;;;5.90;;
6825;SDS011;3451;52.476;13.316;2023-06-14T05:22:56;7.47;;;5.30;;
6825;SDS011;3451;52.476;13.316;2023-06-14T05:25:23;8.83;;;5.47;;
6825;SDS011;3451;52.476;13.316;2023-06-14T05:27:49;8.10;;;5.07;;
6825;SDS011;3451;52.476;13.316;2023-06-14T05:30:15;10.77;;;6.20;;
6825;SDS011;3451;52.476;13.316;2023-06-14T05:32:42;7.50;;;5.53;;
6825;SDS011;3451;52.476;13.316;2023-06-14T05:35:08;9.23;;;6.70;;
6825;SDS011;3451;52.476;13.316;2023-06-14T05:37:34;9.07;;;5.87;;
6825;SDS011;3451;52.476;13.316;2023-06-14T05:40:01;9.37;;;5.80;;
6825;SDS011;3451;52.476;13.316;2023-06-14T05:42:30;9.37;;;5.70;;
6825;SDS011;3451;52.476;13.316;2023-06-14T05:44:56;8.20;;;5.23;;
6825;SDS011;3451;52.476;13.316;2023-06-14T05:47:23;10.50;;;5.97;;
6825;SDS011;3451;52.476;13.316;2023-06-14T05:49:49;9.43;;;5.70;;
6825;SDS011;3451;52.476;13.316;2023-06-14T05:52:15;9.47;;;5.70;;
6825;SDS011;3451;52.476;13.316;2023-06-14T05:54:42;10.03;;;5.67;;
6825;SDS011;3451;52.476;13.316;2023-06-14T05:57:08;8.43;;;6.20;;
6825;SDS011;3451;52.476;13.316;2023-06-14T05:59:34;14.90;;;6.50;;
6825;SDS011;3451;52.476;13.316;2023-06-14T06:02:01;124.50;;;18.43;;
6825;SDS011;3451;52.476;13.316;2023-06-14T06:04:27;7.83;;;6.03;;
6825;SDS011;3451;52.476;13.316;2023-06-14T06:06:53;8.57;;;6.10;;
6825;SDS011;3451;52.476;13.316;2023-06-14T06:09:20;10.07;;;6.33;;
6825;SDS011;3451;52.476;13.316;2023-06-14T06:11:46;8.70;;;5.70;;
6825;SDS011;3451;52.476;13.316;2023-06-14T06:14:19;9.00;;;6.13;;
6825;SDS011;3451;52.476;13.316;2023-06-14T06:16:46;8.13;;;5.70;;
6825;SDS011;3451;52.476;13.316;2023-06-14T06:19:12;10.13;;;6.90;;
6825;SDS011;3451;52.476;13.316;2023-06-14T06:21:39;10.67;;;6.60;;
6825;SDS011;3451;52.476;13.316;2023-06-14T06:24:06;9.40;;;6.43;;
6825;SDS011;3451;52.476;13.316;2023-06-14T06:26:32;10.00;;;6.53;;
6825;SDS011;3451;52.476;13.316;2023-06-14T06:28:58;13.00;;;6.53;;
6825;SDS011;3451;52.476;13.316;2023-06-14T06:31:25;9.13;;;6.70;;
6825;SDS011;3451;52.476;13.316;2023-06-14T06:33:54;9.93;;;6.37;;
6825;SDS011;3451;52.476;13.316;2023-06-14T06:36:20;11.47;;;6.10;;
6825;SDS011;3451;52.476;13.316;2023-06-14T06:38:47;12.93;;;6.80;;
6825;SDS011;3451;52.476;13.316;2023-06-14T06:41:14;8.43;;;6.53;;
6825;SDS011;3451;52.476;13.316;2023-06-14T06:43:40;8.20;;;6.40;;
6825;SDS011;3451;52.476;13.316;2023-06-14T06:46:06;9.50;;;6.03;;
6825;SDS011;3451;52.476;13.316;2023-06-14T06:48:33;8.83;;;6.00;;
6825;SDS011;3451;52.476;13.316;2023-06-14T06:50:59;9.03;;;6.17;;
6825;SDS011;3451;52.476;13.316;2023-06-14T06:53:25;10.13;;;5.60;;
6825;SDS011;3451;52.476;13.316;2023-06-14T06:56:08;9.77;;;6.20;;
6825;SDS011;3451;52.476;13.316;2023-06-14T06:58:34;8.97;;;6.10;;
6825;SDS011;3451;52.476;13.316;2023-06-14T07:01:00;8.23;;;5.80;;
6825;SDS011;3451;52.476;13.316;2023-06-14T07:03:26;10.00;;;5.60;;
6825;SDS011;3451;52.476;13.316;2023-06-14T07:05:53;12.60;;;5.40;;
6825;SDS011;3451;52.476;13.316;2023-06-14T07:08:19;7.43;;;5.30;;
6825;SDS011;3451;52.476;13.316;2023-06-14T07:10:46;8.97;;;5.43;;
6825;SDS011;3451;52.476;13.316;2023-06-14T07:13:12;7.00;;;5.60;;
6825;SDS011;3451;52.476;13.316;2023-06-14T07:15:38;9.80;;;6.50;;
6825;SDS011;3451;52.476;13.316;2023-06-14T07:18:05;6.47;;;5.50;;
6825;SDS011;3451;52.476;13.316;2023-06-14T07:20:33;9.73;;;4.97;;
6825;SDS011;3451;52.476;13.316;2023-06-14T07:22:59;8.30;;;5.07;;
6825;SDS011;3451;52.476;13.316;2023-06-14T07:25:26;11.57;;;5.57;;
6825;SDS011;3451;52.476;13.316;2023-06-14T07:27:52;9.50;;;5.47;;
6825;SDS011;3451;52.476;13.316;2023-06-14T07:30:19;8.23;;;5.87;;
6825;SDS011;3451;52.476;13.316;2023-06-14T07:32:46;12.17;;;5.23;;
6825;SDS011;3451;52.476;13.316;2023-06-14T07:35:12;8.80;;;5.40;;
6825;SDS011;3451;52.476;13.316;2023-06-14T07:37:39;8.83;;;5.07;;
6825;SDS011;3451;52.476;13.316;2023-06-14T07:40:06;8.97;;;5.03;;
6825;SDS011;3451;52.476;13.316;2023-06-14T07:42:34;7.63;;;4.73;;
6825;SDS011;3451;52.476;13.316;2023-06-14T07:45:02;5.60;;;4.43;;
6825;SDS011;3451;52.476;13.316;2023-06-14T07:47:28;8.77;;;4.53;;
6825;SDS011;3451;52.476;13.316;2023-06-14T07:49:55;6.87;;;3.80;;
6825;SDS011;3451;52.476;13.316;2023-06-14T07:52:21;6.27;;;3.87;;
6825;SDS011;3451;52.476;13.316;2023-06-14T07:54:48;10.50;;;5.13;;
6825;SDS011;3451;52.476;13.316;2023-06-14T07:57:14;6.88;;;4.30;;
6825;SDS011;3451;52.476;13.316;2023-06-14T07:59:40;8.05;;;5.00;;
6825;SDS011;3451;52.476;13.316;2023-06-14T08:02:07;5.20;;;4.17;;
6825;SDS011;3451;52.476;13.316;2023-06-14T08:04:33;7.43;;;4.40;;
6825;SDS011;3451;52.476;13.316;2023-06-14T08:07:00;6.30;;;3.87;;
6825;SDS011;3451;52.476;13.316;2023-06-14T08:09:27;5.17;;;3.87;;
6825;SDS011;3451;52.476;13.316;2023-06-14T08:11:55;4.73;;;3.73;;
6825;SDS011;3451;52.476;13.316;2023-06-14T08:14:22;7.63;;;4.10;;
6825;SDS011;3451;52.476;13.316;2023-06-14T08:16:48;6.03;;;3.87;;
6825;SDS011;3451;52.476;13.316;2023-06-14T08:19:15;6.90;;;3.80;;
6825;SDS011;3451;52.476;13.316;2023-06-14T08:21:42;5.87;;;4.00;;
6825;SDS011;3451;52.476;13.316;2023-06-14T08:24:12;3.87;;;3.37;;
6825;SDS011;3451;52.476;13.316;2023-06-14T08:26:39;7.63;;;3.70;;
6825;SDS011;3451;52.476;13.316;2023-06-14T08:29:05;8.70;;;4.40;;
6825;SDS011;3451;52.476;13.316;2023-06-14T08:31:35;7.70;;;4.40;;
6825;SDS011;3451;52.476;13.316;2023-06-14T08:34:01;9.17;;;3.87;;
6825;SDS011;3451;52.476;13.316;2023-06-14T08:36:31;9.10;;;4.80;;
6825;SDS011;3451;52.476;13.316;2023-06-14T08:38:57;6.40;;;4.47;;
6825;SDS011;3451;52.476;13.316;2023-06-14T08:41:24;9.77;;;4.40;;
6825;SDS011;3451;52.476;13.316;2023-06-14T08:43:51;7.83;;;4.37;;
6825;SDS011;3451;52.476;13.316;2023-06-14T08:46:17;6.03;;;3.40;;
6825;SDS011;3451;52.476;13.316;2023-06-14T08:48:49;6.47;;;3.40;;
6825;SDS011;3451;52.476;13.316;2023-06-14T08:51:19;5.67;;;3.80;;
6825;SDS011;3451;52.476;13.316;2023-06-14T08:53:45;7.40;;;4.33;;
6825;SDS011;3451;52.476;13.316;2023-06-14T08:56:13;8.83;;;3.77;;
6825;SDS011;3451;52.476;13.316;2023-06-14T08:58:41;4.27;;;3.30;;
6825;SDS011;3451;52.476;13.316;2023-06-14T09:01:11;5.93;;;3.70;;
6825;SDS011;3451;52.476;13.316;2023-06-14T09:03:43;5.90;;;3.47;;
6825;SDS011;3451;52.476;13.316;2023-06-14T09:06:09;11.17;;;4.10;;
6825;SDS011;3451;52.476;13.316;2023-06-14T09:08:40;7.07;;;3.70;;
6825;SDS011;3451;52.476;13.316;2023-06-14T09:11:08;6.83;;;3.50;;
6825;SDS011;3451;52.476;13.316;2023-06-14T09:13:34;7.60;;;3.57;;
6825;SDS011;3451;52.476;13.316;2023-06-14T09:16:01;7.33;;;4.77;;
6825;SDS011;3451;52.476;13.316;2023-06-14T09:18:37;5.90;;;4.40;;
6825;SDS011;3451;52.476;13.316;2023-06-14T09:21:07;5.50;;;3.77;;
6825;SDS011;3451;52.476;13.316;2023-06-14T09:23:37;6.37;;;3.60;;
6825;SDS011;3451;52.476;13.316;2023-06-14T09:26:08;8.23;;;3.77;;
6825;SDS011;3451;52.476;13.316;2023-06-14T09:28:35;8.70;;;4.53;;
6825;SDS011;3451;52.476;13.316;2023-06-14T09:31:01;8.73;;;3.90;;
6825;SDS011;3451;52.476;13.316;2023-06-14T09:33:28;14.10;;;4.77;;
6825;SDS011;3451;52.476;13.316;2023-06-14T09:35:54;6.73;;;4.27;;
6825;SDS011;3451;52.476;13.316;2023-06-14T09:38:21;12.23;;;3.50;;
6825;SDS011;3451;52.476;13.316;2023-06-14T09:40:47;6.23;;;3.53;;
6825;SDS011;3451;52.476;13.316;2023-06-14T09:43:15;6.43;;;3.27;;
6825;SDS011;3451;52.476;13.316;2023-06-14T09:45:42;7.00;;;3.47;;
6825;SDS011;3451;52.476;13.316;2023-06-14T09:48:11;6.47;;;3.40;;
6825;SDS011;3451;52.476;13.316;2023-06-14T09:50:46;9.10;;;3.10;;
6825;SDS011;3451;52.476;13.316;2023-06-14T09:53:14;6.30;;;3.10;;
6825;SDS011;3451;52.476;13.316;2023-06-14T09:55:41;5.70;;;3.30;;
6825;SDS011;3451;52.476;13.316;2023-06-14T09:58:09;5.20;;;3.20;;
6825;SDS011;3451;52.476;13.316;2023-06-14T10:00:36;8.57;;;3.70;;
6825;SDS011;3451;52.476;13.316;2023-06-14T10:03:05;9.10;;;3.73;;
6825;SDS011;3451;52.476;13.316;2023-06-14T10:05:32;7.57;;;3.73;;
6825;SDS011;3451;52.476;13.316;2023-06-14T10:08:07;10.13;;;4.17;;
6825;SDS011;3451;52.476;13.316;2023-06-14T10:10:34;7.13;;;3.70;;
6825;SDS011;3451;52.476;13.316;2023-06-14T10:13:01;10.93;;;3.87;;
6825;SDS011;3451;52.476;13.316;2023-06-14T10:15:46;10.73;;;4.37;;
6825;SDS011;3451;52.476;13.316;2023-06-14T10:20:42;8.43;;;3.83;;
6825;SDS011;3451;52.476;13.316;2023-06-14T10:23:16;7.17;;;3.90;;
6825;SDS011;3451;52.476;13.316;2023-06-14T10:25:44;5.57;;;3.13;;
6825;SDS011;3451;52.476;13.316;2023-06-14T10:28:17;7.37;;;3.87;;
6825;SDS011;3451;52.476;13.316;2023-06-14T10:31:03;12.83;;;3.90;;
6825;SDS011;3451;52.476;13.316;2023-06-14T10:33:33;6.13;;;3.63;;
6825;SDS011;3451;52.476;13.316;2023-06-14T10:36:09;5.47;;;3.40;;
6825;SDS011;3451;52.476;13.316;2023-06-14T10:38:36;7.53;;;3.70;;
6825;SDS011;3451;52.476;13.316;2023-06-14T10:41:03;8.77;;;4.00;;
6825;SDS011;3451;52.476;13.316;2023-06-14T10:43:35;6.47;;;3.93;;
6825;SDS011;3451;52.476;13.316;2023-06-14T10:46:13;8.13;;;3.70;;
6825;SDS011;3451;52.476;13.316;2023-06-14T10:48:40;4.90;;;3.70;;
6825;SDS011;3451;52.476;13.316;2023-06-14T10:51:18;6.37;;;3.47;;
6825;SDS011;3451;52.476;13.316;2023-06-14T10:53:48;7.73;;;3.37;;
6825;SDS011;3451;52.476;13.316;2023-06-14T10:56:30;10.07;;;4.10;;
6825;SDS011;3451;52.476;13.316;2023-06-14T10:58:57;6.40;;;3.80;;
6825;SDS011;3451;52.476;13.316;2023-06-14T11:01:48;6.60;;;3.77;;
6825;SDS011;3451;52.476;13.316;2023-06-14T11:04:13;6.90;;;3.63;;
6825;SDS011;3451;52.476;13.316;2023-06-14T11:06:49;7.07;;;3.50;;
6825;SDS011;3451;52.476;13.316;2023-06-14T11:12:02;6.03;;;3.37;;
6825;SDS011;3451;52.476;13.316;2023-06-14T11:14:32;6.43;;;3.50;;
6825;SDS011;3451;52.476;13.316;2023-06-14T11:16:58;9.07;;;3.47;;
6825;SDS011;3451;52.476;13.316;2023-06-14T11:19:24;14.67;;;3.60;;
6825;SDS011;3451;52.476;13.316;2023-06-14T11:21:52;9.00;;;4.03;;
6825;SDS011;3451;52.476;13.316;2023-06-14T11:24:19;7.03;;;3.60;;
6825;SDS011;3451;52.476;13.316;2023-06-14T11:26:46;8.53;;;3.97;;
6825;SDS011;3451;52.476;13.316;2023-06-14T11:29:14;7.47;;;3.80;;
6825;SDS011;3451;52.476;13.316;2023-06-14T11:31:44;12.87;;;4.10;;
6825;SDS011;3451;52.476;13.316;2023-06-14T11:34:12;14.40;;;3.80;;
6825;SDS011;3451;52.476;13.316;2023-06-14T11:36:38;9.27;;;3.53;;
6825;SDS011;3451;52.476;13.316;2023-06-14T11:39:05;6.57;;;3.70;;
6825;SDS011;3451;52.476;13.316;2023-06-14T11:41:34;8.63;;;3.50;;
6825;SDS011;3451;52.476;13.316;2023-06-14T11:44:01;4.83;;;3.40;;
6825;SDS011;3451;52.476;13.316;2023-06-14T11:46:28;7.20;;;3.60;;
6825;SDS011;3451;52.476;13.316;2023-06-14T11:48:55;6.83;;;3.60;;
6825;SDS011;3451;52.476;13.316;2023-06-14T11:51:21;7.77;;;3.87;;
6825;SDS011;3451;52.476;13.316;2023-06-14T11:53:47;10.90;;;3.90;;
6825;SDS011;3451;52.476;13.316;2023-06-14T11:56:14;8.90;;;3.67;;
6825;SDS011;3451;52.476;13.316;2023-06-14T11:58:43;5.40;;;3.27;;
6825;SDS011;3451;52.476;13.316;2023-06-14T12:01:13;9.20;;;3.67;;
6825;SDS011;3451;52.476;13.316;2023-06-14T12:03:41;7.70;;;3.43;;
6825;SDS011;3451;52.476;13.316;2023-06-14T12:06:12;9.90;;;3.70;;
6825;SDS011;3451;52.476;13.316;2023-06-14T12:08:39;4.40;;;3.20;;
6825;SDS011;3451;52.476;13.316;2023-06-14T12:11:06;5.37;;;3.17;;
6825;SDS011;3451;52.476;13.316;2023-06-14T12:13:34;7.07;;;3.67;;
6825;SDS011;3451;52.476;13.316;2023-06-14T12:16:01;5.20;;;3.03;;
6825;SDS011;3451;52.476;13.316;2023-06-14T12:18:31;9.60;;;3.20;;
6825;SDS011;3451;52.476;13.316;2023-06-14T12:20:58;9.13;;;3.43;;
6825;SDS011;3451;52.476;13.316;2023-06-14T12:23:44;5.53;;;3.30;;
6825;SDS011;3451;52.476;13.316;2023-06-14T12:26:15;5.10;;;3.37;;
6825;SDS011;3451;52.476;13.316;2023-06-14T12:28:42;6.77;;;3.33;;
6825;SDS011;3451;52.476;13.316;2023-06-14T12:31:10;7.57;;;4.17;;
6825;SDS011;3451;52.476;13.316;2023-06-14T12:33:37;4.83;;;3.13;;
6825;SDS011;3451;52.476;13.316;2023-06-14T12:36:04;6.37;;;3.40;;
6825;SDS011;3451;52.476;13.316;2023-06-14T12:38:32;14.87;;;5.10;;
6825;SDS011;3451;52.476;13.316;2023-06-14T12:40:58;7.20;;;3.90;;
6825;SDS011;3451;52.476;13.316;2023-06-14T12:43:25;6.97;;;3.57;;
6825;SDS011;3451;52.476;13.316;2023-06-14T12:45:51;8.90;;;3.93;;
6825;SDS011;3451;52.476;13.316;2023-06-14T12:48:17;5.23;;;3.40;;
6825;SDS011;3451;52.476;13.316;2023-06-14T12:50:44;10.47;;;3.30;;
6825;SDS011;3451;52.476;13.316;2023-06-14T12:53:11;6.03;;;3.50;;
6825;SDS011;3451;52.476;13.316;2023-06-14T12:55:38;9.80;;;3.67;;
6825;SDS011;3451;52.476;13.316;2023-06-14T12:58:04;7.20;;;3.40;;
6825;SDS011;3451;52.476;13.316;2023-06-14T13:00:31;7.30;;;3.40;;
6825;SDS011;3451;52.476;13.316;2023-06-14T13:02:57;5.83;;;3.50;;
6825;SDS011;3451;52.476;13.316;2023-06-14T13:05:24;7.03;;;3.10;;
6825;SDS011;3451;52.476;13.316;2023-06-14T13:07:50;8.80;;;3.50;;
6825;SDS011;3451;52.476;13.316;2023-06-14T13:10:17;6.30;;;3.50;;
6825;SDS011;3451;52.476;13.316;2023-06-14T13:12:43;5.23;;;3.37;;
6825;SDS011;3451;52.476;13.316;2023-06-14T13:15:10;6.47;;;3.13;;
6825;SDS011;3451;52.476;13.316;2023-06-14T13:17:36;10.87;;;3.70;;
6825;SDS011;3451;52.476;13.316;2023-06-14T13:20:06;5.77;;;3.20;;
6825;SDS011;3451;52.476;13.316;2023-06-14T13:22:33;5.80;;;3.50;;
6825;SDS011;3451;52.476;13.316;2023-06-14T13:24:59;7.70;;;3.30;;
6825;SDS011;3451;52.476;13.316;2023-06-14T13:27:26;7.40;;;3.60;;
6825;SDS011;3451;52.476;13.316;2023-06-14T13:29:53;6.97;;;3.27;;
6825;SDS011;3451;52.476;13.316;2023-06-14T13:32:22;5.40;;;3.10;;
6825;SDS011;3451;52.476;13.316;2023-06-14T13:34:49;6.30;;;3.20;;
6825;SDS011;3451;52.476;13.316;2023-06-14T13:37:15;6.43;;;2.90;;
6825;SDS011;3451;52.476;13.316;2023-06-14T13:39:42;5.57;;;2.97;;
6825;SDS011;3451;52.476;13.316;2023-06-14T13:42:08;8.40;;;3.40;;
6825;SDS011;3451;52.476;13.316;2023-06-14T13:44:35;9.47;;;4.47;;
6825;SDS011;3451;52.476;13.316;2023-06-14T13:47:01;10.60;;;3.63;;
6825;SDS011;3451;52.476;13.316;2023-06-14T13:49:27;7.17;;;3.23;;
6825;SDS011;3451;52.476;13.316;2023-06-14T13:51:54;5.80;;;3.60;;
6825;SDS011;3451;52.476;13.316;2023-06-14T13:54:20;9.43;;;3.23;;
6825;SDS011;3451;52.476;13.316;2023-06-14T13:56:47;6.40;;;3.10;;
6825;SDS011;3451;52.476;13.316;2023-06-14T13:59:13;6.00;;;2.93;;
6825;SDS011;3451;52.476;13.316;2023-06-14T14:01:40;7.83;;;3.30;;
6825;SDS011;3451;52.476;13.316;2023-06-14T14:04:07;7.87;;;3.30;;
6825;SDS011;3451;52.476;13.316;2023-06-14T14:06:33;6.57;;;3.33;;
6825;SDS011;3451;52.476;13.316;2023-06-14T14:08:59;5.43;;;3.10;;
6825;SDS011;3451;52.476;13.316;2023-06-14T14:11:26;11.00;;;3.50;;
6825;SDS011;3451;52.476;13.316;2023-06-14T14:13:54;6.37;;;3.30;;
6825;SDS011;3451;52.476;13.316;2023-06-14T14:16:20;7.37;;;3.60;;
6825;SDS011;3451;52.476;13.316;2023-06-14T14:18:47;8.47;;;2.93;;
6825;SDS011;3451;52.476;13.316;2023-06-14T14:21:13;8.70;;;3.37;;
6825;SDS011;3451;52.476;13.316;2023-06-14T14:23:40;10.43;;;3.60;;
6825;SDS011;3451;52.476;13.316;2023-06-14T14:26:07;7.87;;;2.93;;
6825;SDS011;3451;52.476;13.316;2023-06-14T14:28:33;6.93;;;3.30;;
6825;SDS011;3451;52.476;13.316;2023-06-14T14:31:01;12.57;;;3.63;;
6825;SDS011;3451;52.476;13.316;2023-06-14T14:33:27;5.70;;;2.90;;
6825;SDS011;3451;52.476;13.316;2023-06-14T14:35:54;8.80;;;3.43;;
6825;SDS011;3451;52.476;13.316;2023-06-14T14:38:20;5.93;;;3.10;;
6825;SDS011;3451;52.476;13.316;2023-06-14T14:40:48;7.87;;;3.50;;
6825;SDS011;3451;52.476;13.316;2023-06-14T14:43:14;8.70;;;3.23;;
6825;SDS011;3451;52.476;13.316;2023-06-14T14:45:40;6.57;;;3.40;;
6825;SDS011;3451;52.476;13.316;2023-06-14T14:48:06;9.70;;;3.20;;
6825;SDS011;3451;52.476;13.316;2023-06-14T14:50:33;6.77;;;3.20;;
6825;SDS011;3451;52.476;13.316;2023-06-14T14:52:59;11.07;;;3.63;;
6825;SDS011;3451;52.476;13.316;2023-06-14T14:55:26;6.37;;;3.23;;
6825;SDS011;3451;52.476;13.316;2023-06-14T14:57:52;6.93;;;3.53;;
6825;SDS011;3451;52.476;13.316;2023-06-14T15:00:19;8.40;;;3.50;;
6825;SDS011;3451;52.476;13.316;2023-06-14T15:02:46;8.57;;;3.20;;
6825;SDS011;3451;52.476;13.316;2023-06-14T15:05:12;8.53;;;3.10;;
6825;SDS011;3451;52.476;13.316;2023-06-14T15:07:39;7.37;;;3.23;;
6825;SDS011;3451;52.476;13.316;2023-06-14T15:10:06;7.03;;;3.57;;
6825;SDS011;3451;52.476;13.316;2023-06-14T15:12:33;8.73;;;3.40;;